createdAt,value
2022-12-18T00:02:04.826Z,102006.13
2022-12-18T00:05:11.749Z,102020.34
2022-12-18T00:08:29.508Z,102026.81
2022-12-18T00:11:51.491Z,102037.53
2022-12-18T00:15:14.557Z,102044.47
2022-12-18T00:18:37.916Z,102044.81
2022-12-18T00:22:00.450Z,102059.75
2022-12-18T00:25:21.371Z,102083.03
2022-12-18T00:28:44.615Z,102087.50
2022-12-18T00:32:06.448Z,102084.50
2022-12-18T00:35:29.586Z,102091.16
2022-12-18T00:38:39.398Z,102087.81
2022-12-18T00:42:13.518Z,102096.66
2022-12-18T00:45:35.790Z,102090.66
2022-12-18T00:48:56.519Z,102097.47
2022-12-18T00:52:20.564Z,102099.13
2022-12-18T00:55:43.508Z,102097.78
2022-12-18T00:59:09.514Z,102097.78
2022-12-18T01:02:29.625Z,102114.28
2022-12-18T01:05:49.425Z,102123.53
2022-12-18T01:09:11.444Z,102124.88
2022-12-18T01:12:34.489Z,102127.03
2022-12-18T01:15:56.586Z,102126.38
2022-12-18T01:19:16.487Z,102123.06
2022-12-18T01:22:37.550Z,102139.03
2022-12-18T01:25:53.612Z,102134.34
2022-12-18T01:29:20.380Z,102136.88
2022-12-18T01:32:43.578Z,102141.50
2022-12-18T01:36:03.372Z,102139.19
2022-12-18T01:39:21.536Z,102135.38
2022-12-18T01:42:26.734Z,102152.28
2022-12-18T01:45:31.712Z,102148.81
2022-12-18T01:48:54.152Z,102145.97
2022-12-18T01:52:15.171Z,102162.44
2022-12-18T01:55:29.048Z,102159.25
2022-12-18T01:58:55.992Z,102164.25
2022-12-18T02:02:18.506Z,102157.94
2022-12-18T02:05:37.382Z,102169.91
2022-12-18T02:09:40.468Z,102169.22
2022-12-18T02:13:20.401Z,102182.69
2022-12-18T02:16:38.434Z,102188.66
2022-12-18T02:20:19.026Z,102192.47
2022-12-18T02:23:53.231Z,102197.31
2022-12-18T02:27:30.304Z,102195.81
2022-12-18T02:31:01.099Z,102188.16
2022-12-18T02:34:20.156Z,102200.75
2022-12-18T02:37:45.221Z,102205.78
2022-12-18T02:41:02.343Z,102206.25
2022-12-18T02:44:16.008Z,102213.91
2022-12-18T02:47:44.171Z,102216.03
2022-12-18T02:51:26.296Z,102223.84
2022-12-18T02:54:46.517Z,102225.03
2022-12-18T02:58:25.551Z,102235.50
2022-12-18T03:01:57.139Z,102239.44
2022-12-18T03:05:14.809Z,102241.78
2022-12-18T03:08:30.593Z,102244.25
2022-12-18T03:12:02.211Z,102247.25
2022-12-18T03:15:34.976Z,102248.56
2022-12-18T03:19:03.790Z,102249.56
2022-12-18T03:22:16.534Z,102246.09
2022-12-18T03:25:48.058Z,102256.72
2022-12-18T03:29:14.619Z,102266.81
2022-12-18T03:32:33.741Z,102267.66
2022-12-18T03:35:55.644Z,102276.28
2022-12-18T03:39:17.760Z,102281.09
2022-12-18T03:42:51.902Z,102289.22
2022-12-18T03:46:21.907Z,102294.53
2022-12-18T03:49:58.357Z,102295.31
2022-12-18T03:53:14.868Z,102287.53
2022-12-18T03:56:23.564Z,102291.69
2022-12-18T03:59:33.428Z,102288.72
2022-12-18T04:02:56.822Z,102294.16
2022-12-18T04:06:17.804Z,102297.69
2022-12-18T04:09:35.046Z,102301.53
2022-12-18T04:12:54.916Z,102313.31
2022-12-18T04:16:24.717Z,102315.13
2022-12-18T04:19:48.817Z,102309.44
2022-12-18T04:23:10.831Z,102309.75
2022-12-18T04:26:31.794Z,102315.56
2022-12-18T04:29:55.848Z,102309.06
2022-12-18T04:33:16.836Z,102314.53
2022-12-18T04:36:32.988Z,102311.69
2022-12-18T04:39:53.909Z,102318.66
2022-12-18T04:43:08.910Z,102329.63
2022-12-18T04:46:18.634Z,102335.63
2022-12-18T04:49:28.300Z,102342.59
2022-12-18T04:52:50.849Z,102347.19
2022-12-18T04:56:11.449Z,102354.00
2022-12-18T04:59:21.376Z,102348.03
2022-12-18T05:02:30.280Z,102352.13
2022-12-18T05:05:36.740Z,102349.75
2022-12-18T05:08:41.222Z,102360.59
2022-12-18T05:11:56.862Z,102363.38
2022-12-18T05:15:26.927Z,102372.34
2022-12-18T05:18:33.657Z,102365.03
2022-12-18T05:21:41.807Z,102361.09
2022-12-18T05:24:45.767Z,102369.00
2022-12-18T05:28:04.828Z,102378.00
2022-12-18T05:31:21.782Z,102382.47
2022-12-18T05:34:37.801Z,102390.25
2022-12-18T05:38:04.674Z,102393.94
2022-12-18T05:41:36.471Z,102398.03
2022-12-18T05:44:56.285Z,102396.38
2022-12-18T05:48:18.693Z,102396.22
2022-12-18T05:51:43.484Z,102398.69
2022-12-18T05:55:00.345Z,102409.13
2022-12-18T05:58:20.602Z,102412.47
2022-12-18T06:01:47.745Z,102414.91
2022-12-18T06:05:12.368Z,102417.78
2022-12-18T06:08:15.539Z,102426.59
2022-12-18T06:11:40.702Z,102427.25
2022-12-18T06:14:44.903Z,102428.63
2022-12-18T06:17:54.930Z,102425.38
2022-12-18T06:21:01.618Z,102423.38
2022-12-18T06:24:08.693Z,102434.47
2022-12-18T06:27:16.209Z,102437.28
2022-12-18T06:30:29.517Z,102443.28
2022-12-18T06:33:51.350Z,102446.59
2022-12-18T06:37:14.521Z,102456.69
2022-12-18T06:40:36.542Z,102456.81
2022-12-18T06:44:00.077Z,102457.97
2022-12-18T06:47:16.618Z,102468.28
2022-12-18T06:50:36.438Z,102471.78
2022-12-18T06:53:51.207Z,102476.09
2022-12-18T06:57:14.490Z,102483.13
2022-12-18T07:00:50.582Z,102497.22
2022-12-18T07:04:12.390Z,102503.06
2022-12-18T07:07:34.326Z,102507.38
2022-12-18T07:10:58.419Z,102502.44
2022-12-18T07:14:20.354Z,102510.78
2022-12-18T07:17:42.477Z,102518.44
2022-12-18T07:21:06.507Z,102523.13
2022-12-18T07:24:32.537Z,102524.97
2022-12-18T07:27:46.514Z,102536.94
2022-12-18T07:31:09.468Z,102532.75
2022-12-18T07:34:35.363Z,102544.75
2022-12-18T07:37:55.560Z,102550.03
2022-12-18T07:41:16.601Z,102560.44
2022-12-18T07:44:36.492Z,102564.91
2022-12-18T07:47:52.635Z,102573.41
2022-12-18T07:51:14.450Z,102569.59
2022-12-18T07:54:35.879Z,102570.13
2022-12-18T07:57:50.727Z,102578.44
2022-12-18T08:01:12.436Z,102581.47
2022-12-18T08:04:15.368Z,102584.59
2022-12-18T08:07:29.367Z,102588.00
2022-12-18T08:10:51.141Z,102595.16
2022-12-18T08:14:12.128Z,102603.88
2022-12-18T08:17:32.960Z,102603.72
2022-12-18T08:20:55.274Z,102607.88
2022-12-18T08:24:22.036Z,102602.28
2022-12-18T08:27:38.990Z,102605.63
2022-12-18T08:31:04.087Z,102613.81
2022-12-18T08:34:15.840Z,102622.63
2022-12-18T08:37:34.286Z,102616.50
2022-12-18T08:40:37.441Z,102620.50
2022-12-18T08:44:01.361Z,102609.59
2022-12-18T08:47:08.193Z,102607.13
2022-12-18T08:50:24.539Z,102618.44
2022-12-18T08:53:35.624Z,102622.72
2022-12-18T08:56:39.619Z,102625.94
2022-12-18T08:59:46.566Z,102619.03
2022-12-18T09:03:05.109Z,102636.34
2022-12-18T09:06:28.137Z,102647.16
2022-12-18T09:09:49.098Z,102648.22
2022-12-18T09:12:59.069Z,102646.72
2022-12-18T09:16:25.985Z,102653.53
2022-12-18T09:19:40.378Z,102655.41
2022-12-18T09:22:44.210Z,102649.97
2022-12-18T09:25:47.396Z,102650.28
2022-12-18T09:29:10.127Z,102646.63
2022-12-18T09:32:22.651Z,102643.13
2022-12-18T09:35:29.137Z,102642.66
2022-12-18T09:38:34.671Z,102641.66
2022-12-18T09:41:58.268Z,102640.84
2022-12-18T09:45:16.343Z,102642.03
2022-12-18T09:48:36.048Z,102644.69
2022-12-18T09:51:58.269Z,102643.03
2022-12-18T09:55:40.106Z,102642.56
2022-12-18T09:58:58.670Z,102640.03
2022-12-18T10:02:01.526Z,102644.53
2022-12-18T10:05:43.056Z,102632.34
2022-12-18T10:09:11.416Z,102635.38
2022-12-18T10:13:05.086Z,102628.38
2022-12-18T10:16:36.867Z,102639.47
2022-12-18T10:19:42.341Z,102633.97
2022-12-18T10:23:12.748Z,102638.44
2022-12-18T10:26:28.953Z,102639.41
2022-12-18T10:29:51.861Z,102629.22
2022-12-18T10:33:12.024Z,102620.94
2022-12-18T10:36:34.849Z,102626.50
2022-12-18T10:40:23.672Z,102621.44
2022-12-18T10:43:27.067Z,102619.25
2022-12-18T10:46:30.116Z,102627.63
2022-12-18T10:50:03.830Z,102622.47
2022-12-18T10:53:33.818Z,102625.13
2022-12-18T10:56:38.893Z,102621.22
2022-12-18T11:00:02.418Z,102620.63
2022-12-18T11:03:41.815Z,102617.13
2022-12-18T11:07:07.919Z,102609.69
2022-12-18T11:10:27.370Z,102614.03
2022-12-18T11:13:39.731Z,102606.19
2022-12-18T11:20:37.815Z,102603.41
2022-12-18T11:23:51.753Z,102609.13
2022-12-18T11:27:18.060Z,102604.69
2022-12-18T11:30:38.928Z,102605.31
2022-12-18T11:37:37.910Z,102603.97
2022-12-18T11:40:57.146Z,102587.72
2022-12-18T11:44:08.211Z,102593.06
2022-12-18T11:47:45.937Z,102589.38
2022-12-18T11:50:55.027Z,102588.44
2022-12-18T11:54:17.997Z,102585.13
2022-12-18T11:57:53.017Z,102588.06
2022-12-18T12:01:04.701Z,102586.75
2022-12-18T12:04:38.114Z,102579.31
2022-12-18T12:08:27.316Z,102576.00
2022-12-18T12:11:43.203Z,102574.88
2022-12-18T12:15:25.416Z,102575.97
2022-12-18T12:19:17.718Z,102565.75
2022-12-18T12:22:37.585Z,102572.00
2022-12-18T12:25:52.869Z,102576.38
2022-12-18T12:29:20.848Z,102573.00
2022-12-18T12:32:33.857Z,102576.47
2022-12-18T12:36:05.468Z,102575.94
2022-12-18T12:39:17.215Z,102577.94
2022-12-18T12:43:01.898Z,102572.38
2022-12-18T12:46:19.810Z,102583.75
2022-12-18T12:49:39.042Z,102590.59
2022-12-18T12:52:51.455Z,102600.09
2022-12-18T12:55:56.157Z,102612.72
2022-12-18T12:59:18.388Z,102606.09
2022-12-18T13:02:41.502Z,102602.19
2022-12-18T13:05:52.251Z,102604.13
2022-12-18T13:09:01.637Z,102612.50
2022-12-18T13:12:30.697Z,102613.16
2022-12-18T13:15:55.890Z,102608.63
2022-12-18T13:19:27.570Z,102609.84
2022-12-18T13:22:50.518Z,102612.03
2022-12-18T13:26:29.036Z,102619.34
2022-12-18T13:29:47.002Z,102621.09
2022-12-18T13:33:24.246Z,102618.88
2022-12-18T13:36:33.784Z,102629.47
2022-12-18T13:39:41.002Z,102633.81
2022-12-18T13:43:17.551Z,102629.47
2022-12-18T13:46:43.730Z,102633.34
2022-12-18T13:49:49.694Z,102635.28
2022-12-18T13:52:59.308Z,102639.03
2022-12-18T13:56:16.060Z,102645.44
2022-12-18T13:59:46.622Z,102648.38
2022-12-18T14:03:07.520Z,102635.59
2022-12-18T14:06:33.542Z,102647.19
2022-12-18T14:10:06.491Z,102650.75
2022-12-18T14:13:31.847Z,102650.25
2022-12-18T14:16:44.685Z,102648.47
2022-12-18T14:19:51.237Z,102652.00
2022-12-18T14:22:59.160Z,102649.03
2022-12-18T14:26:29.491Z,102648.34
2022-12-18T14:29:32.672Z,102649.91
2022-12-18T14:32:49.958Z,102654.94
2022-12-18T14:36:11.383Z,102656.13
2022-12-18T14:39:33.219Z,102663.81
2022-12-18T14:42:58.056Z,102669.00
2022-12-18T14:46:02.889Z,102681.03
2022-12-18T14:49:40.913Z,102680.41
2022-12-18T14:53:03.079Z,102695.63
2022-12-18T14:56:25.062Z,102701.78
2022-12-18T14:59:34.884Z,102693.47
2022-12-18T15:02:58.303Z,102696.81
2022-12-18T15:06:37.140Z,102701.00
2022-12-18T15:10:05.328Z,102712.47
2022-12-18T15:13:10.958Z,102715.44
2022-12-18T15:16:34.110Z,102719.31
2022-12-18T15:20:04.325Z,102719.47
2022-12-18T15:23:25.167Z,102727.63
2022-12-18T15:26:49.477Z,102726.50
2022-12-18T15:30:27.515Z,102727.97
2022-12-18T15:33:36.121Z,102740.50
2022-12-18T15:36:52.299Z,102743.66
2022-12-18T15:40:08.871Z,102748.50
2022-12-18T15:43:41.363Z,102750.34
2022-12-18T15:47:02.192Z,102757.66
2022-12-18T15:50:12.056Z,102770.69
2022-12-18T15:53:28.128Z,102777.69
2022-12-18T15:57:19.046Z,102780.34
2022-12-18T16:00:32.260Z,102780.69
2022-12-18T16:03:52.118Z,102783.19
2022-12-18T16:07:24.585Z,102786.53
2022-12-18T16:10:36.573Z,102789.50
2022-12-18T16:13:58.977Z,102791.28
2022-12-18T16:17:16.152Z,102784.75
2022-12-18T16:20:38.977Z,102791.75
2022-12-18T16:23:59.200Z,102800.38
2022-12-18T16:27:15.063Z,102795.38
2022-12-18T16:30:47.842Z,102812.19
2022-12-18T16:34:35.648Z,102807.69
2022-12-18T16:37:40.613Z,102810.00
2022-12-18T16:41:09.330Z,102801.50
2022-12-18T16:44:16.100Z,102806.41
2022-12-18T16:47:29.029Z,102816.53
2022-12-18T16:50:49.215Z,102825.16
2022-12-18T16:53:56.923Z,102827.00
2022-12-18T16:57:00.961Z,102823.66
2022-12-18T17:00:25.499Z,102822.66
2022-12-18T17:03:44.764Z,102823.13
2022-12-18T17:07:06.044Z,102808.94
2022-12-18T17:10:21.671Z,102805.91
2022-12-18T17:13:27.614Z,102812.06
2022-12-18T17:16:40.574Z,102815.25
2022-12-18T17:20:04.826Z,102807.59
2022-12-18T17:23:15.338Z,102803.56
2022-12-18T17:26:35.137Z,102813.00
2022-12-18T17:29:58.877Z,102819.25
2022-12-18T17:33:22.833Z,102817.28
2022-12-18T17:36:42.783Z,102815.88
2022-12-18T17:40:08.384Z,102816.59
2022-12-18T17:43:24.171Z,102815.91
2022-12-18T17:46:49.955Z,102821.41
2022-12-18T17:50:21.704Z,102833.69
2022-12-18T17:53:43.153Z,102826.53
2022-12-18T17:56:54.359Z,102826.16
2022-12-18T17:59:57.446Z,102822.44
2022-12-18T18:03:01.358Z,102821.09
2022-12-18T18:06:11.546Z,102822.53
2022-12-18T18:09:31.726Z,102823.34
2022-12-18T18:13:06.795Z,102828.34
2022-12-18T18:16:18.501Z,102829.56
2022-12-18T18:19:38.643Z,102833.06
2022-12-18T18:22:59.760Z,102834.03
2022-12-18T18:26:09.697Z,102824.56
2022-12-18T18:29:24.071Z,102827.03
2022-12-18T18:32:33.735Z,102832.03
2022-12-18T18:35:55.536Z,102841.31
2022-12-18T18:39:09.505Z,102847.94
2022-12-18T18:42:33.655Z,102847.34
2022-12-18T18:45:48.534Z,102852.50
2022-12-18T18:49:08.033Z,102862.09
2022-12-18T18:52:19.995Z,102865.06
2022-12-18T18:55:42.544Z,102864.22
2022-12-18T18:59:16.474Z,102862.72
2022-12-18T19:02:27.401Z,102866.72
2022-12-18T19:05:50.463Z,102873.25
2022-12-18T19:09:24.457Z,102877.31
2022-12-18T19:13:04.457Z,102878.41
2022-12-18T19:16:09.815Z,102876.06
2022-12-18T19:19:27.428Z,102882.53
2022-12-18T19:22:55.571Z,102885.72
2022-12-18T19:26:27.412Z,102894.56
2022-12-18T19:29:42.463Z,102899.72
2022-12-18T19:33:19.870Z,102902.38
2022-12-18T19:36:29.503Z,102910.31
2022-12-18T19:39:45.443Z,102910.63
2022-12-18T19:43:02.524Z,102908.22
2022-12-18T19:46:26.440Z,102915.88
2022-12-18T19:49:53.385Z,102917.63
2022-12-18T19:53:16.401Z,102914.56
2022-12-18T19:56:37.347Z,102929.22
2022-12-18T20:00:00.334Z,102921.25
2022-12-18T20:03:25.229Z,102919.97
2022-12-18T20:06:51.452Z,102922.34
2022-12-18T20:10:09.225Z,102927.97
2022-12-18T20:13:32.348Z,102933.97
2022-12-18T20:16:52.539Z,102939.06
2022-12-18T20:20:13.409Z,102940.97
2022-12-18T20:23:33.299Z,102948.66
2022-12-18T20:26:54.285Z,102957.41
2022-12-18T20:30:04.262Z,102953.31
2022-12-18T20:33:11.402Z,102955.19
2022-12-18T20:36:21.321Z,102952.34
2022-12-18T20:39:39.271Z,102955.13
2022-12-18T20:42:56.500Z,102960.59
2022-12-18T20:46:15.259Z,102962.72
2022-12-18T20:49:39.552Z,102964.00
2022-12-18T20:53:09.007Z,102974.31
2022-12-18T20:56:32.494Z,102970.00
2022-12-18T20:59:48.603Z,102967.38
2022-12-18T21:03:08.440Z,102978.69
2022-12-18T21:06:35.198Z,102977.31
2022-12-18T21:09:55.283Z,102980.25
2022-12-18T21:13:18.136Z,102979.53
2022-12-18T21:16:38.433Z,102984.94
2022-12-18T21:19:53.583Z,102976.84
2022-12-18T21:23:05.846Z,102987.47
2022-12-18T21:26:21.301Z,102983.13
2022-12-18T21:29:26.955Z,102980.47
2022-12-18T21:32:33.842Z,102982.00
2022-12-18T21:35:36.645Z,102971.91
2022-12-18T21:38:43.383Z,102971.22
2022-12-18T21:42:12.852Z,102970.53
2022-12-18T21:45:27.196Z,102968.56
2022-12-18T21:48:48.937Z,102959.63
2022-12-18T21:52:07.068Z,102967.88
2022-12-18T21:55:34.358Z,102969.69
2022-12-18T21:58:57.208Z,102962.88
2022-12-18T22:02:02.079Z,102960.66
2022-12-18T22:05:25.031Z,102971.38
2022-12-18T22:09:02.046Z,102962.31
2022-12-18T22:12:33.944Z,102966.41
2022-12-18T22:15:47.168Z,102976.19
2022-12-18T22:19:10.230Z,102970.03
2022-12-18T22:22:33.981Z,102963.34
2022-12-18T22:25:54.045Z,102980.41
2022-12-18T22:29:29.655Z,102969.34
2022-12-18T22:32:41.519Z,102973.97
2022-12-18T22:35:54.055Z,102971.59
2022-12-18T22:39:16.987Z,102976.22
2022-12-18T22:42:38.010Z,102981.66
2022-12-18T22:45:57.944Z,102977.91
2022-12-18T22:49:07.781Z,102981.13
2022-12-18T22:52:15.597Z,102977.78
2022-12-18T22:55:26.133Z,102985.31
2022-12-18T22:58:41.874Z,102989.09
2022-12-18T23:02:05.104Z,102992.31
2022-12-18T23:05:19.195Z,102994.81
2022-12-18T23:08:22.378Z,102992.47
2022-12-18T23:11:32.039Z,102988.69
2022-12-18T23:14:38.277Z,102990.63
2022-12-18T23:17:41.104Z,102994.00
2022-12-18T23:20:48.730Z,103000.56
2022-12-18T23:24:06.572Z,102994.69
2022-12-18T23:27:28.548Z,102988.69
2022-12-18T23:30:50.591Z,102987.72
2022-12-18T23:34:13.639Z,102988.28
2022-12-18T23:37:58.302Z,102985.19
2022-12-18T23:40:59.835Z,102983.50
2022-12-18T23:44:21.570Z,102985.44
2022-12-18T23:47:37.994Z,102980.81
2022-12-18T23:50:57.740Z,102993.38
2022-12-18T23:54:32.670Z,102996.44
2022-12-18T23:57:50.695Z,103008.03
